Time;durP1;ratioP1;P1;durP2;ratioP2;P2;SDS_P1;SDS_P2;PMS_P1;PMS_P2;Temp;Humidity;BMP_temperature;BMP_pressure;BME280_temperature;BME280_humidity;BME280_pressure;Samples;Min_cycle;Max_cycle;Signal;HPM_P1;HPM_P2
2022/05/15 00:01:27;;;;;;;11.97;5.30;;;;;;;11.39;100.00;99701.71;1798535;80;21161;-79
2022/05/15 00:04:33;;;;;;;8.90;5.20;;;;;;;11.36;100.00;99703.98;1798489;80;21130;-79
2022/05/15 00:07:38;;;;;;;11.35;5.25;;;;;;;11.33;100.00;99705.21;1797001;80;21197;-79
2022/05/15 00:10:46;;;;;;;12.37;5.22;;;;;;;11.34;100.00;99710.16;1797072;79;21718;-79
2022/05/15 00:13:53;;;;;;;8.28;4.90;;;;;;;11.32;100.00;99712.27;1797160;80;21184;-79
2022/05/15 00:17:00;;;;;;;10.53;5.45;;;;;;;11.28;100.00;99715.91;1796926;80;21738;-79
2022/05/15 00:20:07;;;;;;;6.72;4.97;;;;;;;11.25;100.00;99713.06;1798664;80;21182;-79
2022/05/15 00:23:15;;;;;;;11.30;6.10;;;;;;;11.23;100.00;99715.65;1798454;80;21177;-79
2022/05/15 00:26:21;;;;;;;12.98;5.83;;;;;;;11.19;100.00;99707.49;1798480;80;21696;-79
2022/05/15 00:29:29;;;;;;;8.05;5.37;;;;;;;11.16;100.00;99717.48;1797005;80;21189;-79
2022/05/15 00:32:34;;;;;;;19.15;6.05;;;;;;;11.12;100.00;99716.17;1797942;80;21181;-79
2022/05/15 00:35:39;;;;;;;8.35;5.42;;;;;;;11.09;100.00;99720.66;1798048;79;21892;-79
2022/05/15 00:38:46;;;;;;;12.35;5.83;;;;;;;11.05;100.00;99726.19;1803233;79;21200;-79
2022/05/15 00:41:52;;;;;;;12.60;6.25;;;;;;;11.02;100.00;99726.07;1804095;79;21145;-79
2022/05/15 00:44:58;;;;;;;14.07;6.10;;;;;;;10.97;100.00;99728.02;1802613;79;21153;-80
2022/05/15 00:48:03;;;;;;;10.05;6.08;;;;;;;10.93;100.00;99723.12;1803267;79;21757;-80
2022/05/15 00:51:10;;;;;;;15.50;6.40;;;;;;;10.89;100.00;99733.59;1804212;79;21502;-80
2022/05/15 00:54:29;;;;;;;14.85;6.20;;;;;;;10.87;100.00;99728.85;1803536;79;21761;-82
2022/05/15 00:57:40;;;;;;;12.68;7.05;;;;;;;10.89;100.00;99734.13;1800554;79;21227;-82
2022/05/15 01:00:46;;;;;;;16.45;6.40;;;;;;;10.89;100.00;99732.75;1781496;80;21599;-80
2022/05/15 01:03:52;;;;;;;14.90;6.00;;;;;;;10.87;100.00;99732.08;1777320;80;21327;-79
2022/05/15 01:06:45;;;;;;;17.60;7.12;;;;;;;10.84;100.00;99736.06;1778464;80;21149;-82
2022/05/15 01:09:52;;;;;;;9.50;6.55;;;;;;;10.81;100.00;99733.70;1776895;80;21809;-82
2022/05/15 01:12:58;;;;;;;19.02;6.92;;;;;;;10.79;100.00;99738.53;1777585;80;21207;-82
2022/05/15 01:16:04;;;;;;;12.33;6.58;;;;;;;10.75;100.00;99741.31;1778499;80;21149;-83
2022/05/15 01:19:10;;;;;;;15.30;6.78;;;;;;;10.71;100.00;99734.00;1778532;80;21746;-83
2022/05/15 01:22:15;;;;;;;19.07;6.67;;;;;;;10.70;100.00;99741.89;1778030;80;21189;-83
2022/05/15 01:25:28;;;;;;;13.50;7.55;;;;;;;10.68;100.00;99743.10;1777390;80;21177;-82
2022/05/15 01:28:36;;;;;;;13.58;6.58;;;;;;;10.67;100.00;99746.88;1777066;80;21221;-82
2022/05/15 01:31:42;;;;;;;13.35;6.97;;;;;;;10.64;100.00;99751.39;1778549;80;21142;-83
2022/05/15 01:34:49;;;;;;;13.35;6.85;;;;;;;10.62;100.00;99758.92;1778684;80;21174;-83
2022/05/15 01:37:54;;;;;;;15.43;6.72;;;;;;;10.57;100.00;99756.75;1780681;80;21323;-83
2022/05/15 01:41:01;;;;;;;9.70;6.58;;;;;;;10.54;100.00;99763.11;1782893;80;21177;-82
2022/05/15 01:44:07;;;;;;;12.93;6.40;;;;;;;10.51;100.00;99760.25;1784000;80;21208;-82
2022/05/15 01:47:15;;;;;;;13.03;6.15;;;;;;;10.47;100.00;99763.88;1783988;80;21216;-82
2022/05/15 01:50:20;;;;;;;11.05;6.40;;;;;;;10.44;100.00;99762.91;1783613;80;21220;-82
2022/05/15 01:53:26;;;;;;;11.40;6.20;;;;;;;10.41;100.00;99766.53;1782983;80;21758;-82
2022/05/15 01:56:32;;;;;;;10.25;6.00;;;;;;;10.38;100.00;99766.38;1783951;80;21158;-82
2022/05/15 01:59:38;;;;;;;9.43;6.50;;;;;;;10.33;100.00;99771.56;1782616;80;21221;-82
2022/05/15 02:02:45;;;;;;;11.85;6.37;;;;;;;10.28;100.00;99764.44;1783826;80;21727;-82
2022/05/15 02:05:51;;;;;;;16.20;6.53;;;;;;;10.24;100.00;99769.95;1784272;80;21145;-82
2022/05/15 02:08:57;;;;;;;9.33;6.65;;;;;;;10.18;100.00;99765.20;1782688;80;21440;-82
2022/05/15 02:12:06;;;;;;;18.87;7.20;;;;;;;10.12;100.00;99765.44;1782619;80;21181;-83
2022/05/15 02:15:15;;;;;;;11.00;5.33;;;;;;;10.05;100.00;99761.74;1783922;80;21197;-82
2022/05/15 02:18:21;;;;;;;18.20;6.75;;;;;;;9.99;100.00;99764.71;1783049;80;21193;-82
2022/05/15 02:21:27;;;;;;;9.95;6.08;;;;;;;9.96;100.00;99760.13;1783168;80;21260;-83
2022/05/15 02:24:32;;;;;;;13.98;6.00;;;;;;;9.97;100.00;99758.59;1783763;80;21161;-82
2022/05/15 02:27:38;;;;;;;17.70;6.33;;;;;;;10.07;100.00;99758.81;1783116;80;21748;-82
2022/05/15 02:30:44;;;;;;;9.93;5.35;;;;;;;10.17;100.00;99767.09;1781930;80;21205;-82
2022/05/15 02:33:50;;;;;;;14.68;5.75;;;;;;;10.37;100.00;99770.16;1782566;80;21239;-83
2022/05/15 02:36:55;;;;;;;15.45;5.85;;;;;;;10.63;100.00;99769.69;1783984;80;21153;-83
2022/05/15 02:40:01;;;;;;;13.18;4.45;;;;;;;10.96;100.00;99781.06;1745207;82;21157;-82
2022/05/15 02:43:07;;;;;;;11.97;4.75;;;;;;;11.35;100.00;99777.59;1744147;82;21191;-82
2022/05/15 02:46:12;;;;;;;10.13;4.62;;;;;;;11.78;100.00;99783.92;1745130;82;21732;-82
2022/05/15 02:52:41;;;;;;;7.12;3.95;;;;;;;12.47;93.79;99790.09;1743914;82;21163;-83
2022/05/15 02:55:47;;;;;;;11.55;4.05;;;;;;;12.70;90.98;99796.14;1744677;82;21234;-82
2022/05/15 02:58:53;;;;;;;11.85;3.98;;;;;;;12.95;89.21;99799.20;1743732;82;21737;-82
2022/05/15 03:01:59;;;;;;;8.65;3.55;;;;;;;13.14;87.50;99800.88;1744101;82;21259;-82
2022/05/15 03:05:04;;;;;;;9.73;3.60;;;;;;;13.24;85.21;99802.20;1744604;82;21195;-83
2022/05/15 03:08:10;;;;;;;12.78;4.37;;;;;;;13.32;84.35;99804.46;1744268;82;21224;-82
2022/05/15 03:11:16;;;;;;;7.80;3.15;;;;;;;13.34;83.10;99808.67;1744058;82;21844;-82
2022/05/15 03:14:24;;;;;;;7.15;3.42;;;;;;;13.44;82.34;99813.25;1743197;82;21239;-82
2022/05/15 03:17:29;;;;;;;14.38;3.85;;;;;;;13.62;81.87;99814.04;1743974;82;21203;-82
2022/05/15 03:20:34;;;;;;;8.33;3.67;;;;;;;13.89;81.06;99814.09;1744450;82;21227;-82
2022/05/15 03:23:39;;;;;;;8.95;2.95;;;;;;;14.10;78.93;99811.66;1743237;82;21235;-82
2022/05/15 03:26:52;;;;;;;6.35;2.98;;;;;;;14.27;78.02;99822.56;1743710;82;21232;-81
2022/05/15 03:29:57;;;;;;;7.60;3.20;;;;;;;14.30;76.68;99820.74;1744560;82;21702;-82
2022/05/15 03:33:04;;;;;;;11.88;3.60;;;;;;;14.28;75.88;99829.75;1744278;82;21156;-82
2022/05/15 03:36:13;;;;;;;11.20;3.45;;;;;;;14.30;75.97;99827.12;1745144;82;21227;-82
2022/05/15 03:39:23;;;;;;;9.03;3.33;;;;;;;14.34;75.62;99816.52;1763873;80;21784;-82
2022/05/15 03:42:26;;;;;;;9.65;3.30;;;;;;;14.41;74.85;99818.75;1732177;81;21704;-82
2022/05/15 03:45:31;;;;;;;8.33;3.47;;;;;;;14.47;74.45;99818.41;1780670;79;21145;-82
2022/05/15 03:48:38;;;;;;;8.05;3.35;;;;;;;14.50;73.77;99816.66;1780053;79;21706;-82
2022/05/15 03:51:44;;;;;;;6.10;3.60;;;;;;;14.55;73.21;99820.98;1773318;80;21171;-81
2022/05/15 03:54:51;;;;;;;10.05;3.42;;;;;;;14.52;71.87;99817.27;1764025;81;21186;-81
2022/05/15 03:57:58;;;;;;;16.60;3.98;;;;;;;14.45;72.79;99818.64;1699103;84;21242;-81
2022/05/15 04:00:59;;;;;;;8.98;3.75;;;;;;;14.45;73.01;99818.64;1765342;81;21719;-80
2022/05/15 04:04:06;;;;;;;9.60;4.03;;;;;;;14.43;73.14;99817.98;1765107;81;21177;-80
2022/05/15 04:07:12;;;;;;;9.43;3.92;;;;;;;14.39;73.89;99824.13;1699666;84;21812;-80
2022/05/15 04:10:19;;;;;;;13.35;4.08;;;;;;;14.42;74.06;99826.47;1765758;81;21683;-82
2022/05/15 04:13:24;;;;;;;17.67;4.42;;;;;;;14.45;73.60;99817.27;1699221;84;21217;-80
2022/05/15 04:16:29;;;;;;;10.58;3.62;;;;;;;14.42;72.70;99823.72;1765456;81;21150;-80
2022/05/15 04:19:35;;;;;;;15.30;4.97;;;;;;;14.34;73.54;99819.27;1765036;81;21178;-80
2022/05/15 04:22:43;;;;;;;16.75;4.40;;;;;;;14.30;73.29;99813.87;1698523;84;21273;-80
2022/05/15 04:25:48;;;;;;;15.93;4.80;;;;;;;14.26;73.75;99818.97;1764989;81;21178;-80
2022/05/15 04:28:53;;;;;;;14.95;4.58;;;;;;;14.24;73.57;99813.35;1698219;84;21310;-80
2022/05/15 04:31:59;;;;;;;11.10;4.25;;;;;;;14.25;75.00;99814.50;1763529;81;21287;-80
2022/05/15 04:35:04;;;;;;;9.55;4.53;;;;;;;14.27;74.25;99826.16;1764871;81;21755;-80
2022/05/15 04:38:11;;;;;;;10.75;4.47;;;;;;;14.34;75.30;99822.02;1764597;81;21803;-79
2022/05/15 04:41:16;;;;;;;15.20;4.87;;;;;;;14.45;74.76;99818.64;1710436;81;21707;-79
2022/05/15 04:44:21;;;;;;;9.70;3.70;;;;;;;14.57;74.70;99822.45;1771438;81;21161;-79
2022/05/15 04:47:27;;;;;;;14.35;4.30;;;;;;;14.69;73.70;99832.82;1735204;82;21200;-79
2022/05/15 04:50:37;;;;;;;10.05;4.15;;;;;;;14.79;73.61;99823.58;1772145;80;21200;-79
2022/05/15 04:53:40;;;;;;;12.47;4.25;;;;;;;14.91;73.32;99833.38;1734929;82;21220;-79
2022/05/15 04:56:45;;;;;;;9.85;4.03;;;;;;;15.00;72.05;99837.59;1735084;82;21177;-79
2022/05/15 04:59:51;;;;;;;12.13;4.35;;;;;;;15.08;72.58;99828.56;1776180;79;21158;-79
2022/05/15 05:02:56;;;;;;;10.03;4.42;;;;;;;15.12;69.18;99826.77;1784236;79;21213;-78
2022/05/15 05:06:03;;;;;;;14.33;4.47;;;;;;;15.13;69.76;99832.58;1770291;81;21210;-78
2022/05/15 05:09:08;;;;;;;10.20;5.17;;;;;;;15.14;69.08;99828.75;1770123;81;21170;-79
2022/05/15 05:12:16;;;;;;;13.50;4.03;;;;;;;15.14;69.98;99830.13;1769748;81;21177;-78
2022/05/15 05:15:26;;;;;;;15.90;5.03;;;;;;;15.18;70.22;99836.37;1769526;81;21233;-79
2022/05/15 05:18:28;;;;;;;17.12;3.87;;;;;;;15.22;68.67;99834.03;1768565;81;21260;-78
2022/05/15 05:21:34;;;;;;;9.20;4.70;;;;;;;15.26;68.52;99838.89;1769271;81;21217;-78
2022/05/15 05:24:38;;;;;;;14.98;4.15;;;;;;;15.26;67.27;99838.89;1767991;81;21154;-78
2022/05/15 05:27:46;;;;;;;9.48;4.20;;;;;;;15.26;69.46;99838.89;1768958;81;21567;-79
2022/05/15 05:30:52;;;;;;;10.65;3.85;;;;;;;15.30;68.59;99840.68;1768936;81;21605;-78
2022/05/15 05:33:58;;;;;;;9.68;3.83;;;;;;;15.38;68.03;99840.41;1795683;79;21197;-78
2022/05/15 05:37:04;;;;;;;10.38;4.15;;;;;;;15.44;66.03;99847.83;1801763;79;21201;-78
2022/05/15 05:40:10;;;;;;;14.65;3.90;;;;;;;15.47;66.44;99844.61;1802055;79;21742;-78
2022/05/15 05:43:17;;;;;;;16.37;4.30;;;;;;;15.53;66.96;99845.67;1801810;79;21211;-78
2022/05/15 05:46:23;;;;;;;13.05;4.33;;;;;;;15.58;64.45;99852.20;1802756;79;21204;-78
2022/05/15 05:49:29;;;;;;;10.90;3.85;;;;;;;15.58;64.90;99848.61;1802765;79;21733;-79
2022/05/15 05:52:35;;;;;;;7.95;3.65;;;;;;;15.65;67.06;99848.59;1803239;79;21200;-79
2022/05/15 05:55:41;;;;;;;10.75;3.95;;;;;;;15.76;65.30;99856.15;1800762;79;21665;-78
2022/05/15 05:58:46;;;;;;;12.50;3.75;;;;;;;15.84;66.54;99844.86;1750966;81;21755;-78
2022/05/15 06:01:52;;;;;;;6.75;3.37;;;;;;;15.95;65.80;99844.17;1803477;79;21161;-78
2022/05/15 06:04:57;;;;;;;10.40;4.25;;;;;;;16.06;65.33;99853.10;1802468;79;21137;-78
2022/05/15 06:08:04;;;;;;;14.43;4.45;;;;;;;16.09;63.61;99842.14;1802045;79;21192;-78
2022/05/15 06:11:09;;;;;;;8.75;4.00;;;;;;;16.12;63.49;99846.38;1799138;79;21790;-79
2022/05/15 06:14:13;;;;;;;13.48;3.62;;;;;;;16.14;64.50;99845.60;1808572;79;21189;-77
2022/05/15 06:17:20;;;;;;;11.00;3.87;;;;;;;16.23;65.51;99844.27;1790541;79;21193;-78
2022/05/15 06:20:26;;;;;;;19.12;4.65;;;;;;;16.33;63.13;99851.53;1770620;81;21197;-78
2022/05/15 06:23:32;;;;;;;13.58;4.25;;;;;;;16.39;65.65;99849.77;1797324;79;21173;-78
2022/05/15 06:26:38;;;;;;;12.82;4.83;;;;;;;16.46;64.19;99851.39;1787073;79;21225;-78
2022/05/15 06:29:46;;;;;;;8.80;3.67;;;;;;;16.51;65.46;99852.94;1699235;84;21219;-78
2022/05/15 06:32:53;;;;;;;12.13;3.52;;;;;;;16.55;64.85;99863.84;1764922;81;21239;-78
2022/05/15 06:35:59;;;;;;;11.97;3.95;;;;;;;16.56;64.51;99860.03;1699002;84;21199;-78
2022/05/15 06:39:05;;;;;;;7.05;3.42;;;;;;;16.61;65.57;99861.58;1771805;81;21714;-78
2022/05/15 06:42:14;;;;;;;14.20;3.77;;;;;;;16.78;65.80;99861.01;1786670;79;21169;-78
2022/05/15 06:45:14;;;;;;;12.28;3.42;;;;;;;16.92;64.17;99861.72;1802416;79;21176;-78
2022/05/15 06:48:07;;;;;;;8.38;3.87;;;;;;;17.01;63.87;99854.83;1803179;79;21197;-78
2022/05/15 06:50:54;;;;;;;9.13;3.80;;;;;;;17.05;64.67;99856.05;1784991;79;21138;-78
2022/05/15 06:53:46;;;;;;;5.45;3.25;;;;;;;17.17;64.55;99857.50;1803489;79;21169;-78
2022/05/15 07:00:30;;;;;;;7.12;3.35;;;;;;;17.44;63.46;99851.96;1800864;79;21197;-78
2022/05/15 07:03:35;;;;;;;14.68;4.37;;;;;;;17.60;62.50;99850.50;1770207;81;21200;-78
2022/05/15 07:06:41;;;;;;;7.17;3.52;;;;;;;17.74;61.54;99852.58;1771483;80;21177;-78
2022/05/15 07:09:46;;;;;;;12.25;3.40;;;;;;;17.79;62.25;99857.70;1772096;81;21157;-78
2022/05/15 07:12:51;;;;;;;9.13;4.10;;;;;;;17.81;61.79;99861.06;1782796;79;21190;-78
2022/05/15 07:15:58;;;;;;;9.30;3.52;;;;;;;17.74;59.97;99858.11;1770886;79;21161;-78
2022/05/15 07:18:57;;;;;;;10.85;4.17;;;;;;;17.77;61.73;99861.77;1785097;79;21193;-79
2022/05/15 07:22:03;;;;;;;7.03;3.12;;;;;;;17.83;62.15;99869.99;1801725;79;21172;-79
2022/05/15 07:25:10;;;;;;;7.53;3.42;;;;;;;17.84;62.17;99868.07;1803090;79;21161;-79
2022/05/15 07:28:16;;;;;;;6.83;3.25;;;;;;;17.87;60.04;99868.96;1795654;79;21197;-78
2022/05/15 07:31:22;;;;;;;11.90;3.52;;;;;;;17.91;59.31;99873.49;1769058;81;21212;-78
2022/05/15 07:34:27;;;;;;;7.08;2.80;;;;;;;17.81;57.00;99870.75;1770247;81;21746;-79
2022/05/15 07:37:35;;;;;;;9.05;3.10;;;;;;;17.62;59.45;99872.68;1770404;81;21154;-78
2022/05/15 07:40:40;;;;;;;10.55;2.67;;;;;;;17.54;58.56;99872.14;1797411;79;21191;-79
2022/05/15 07:43:47;;;;;;;8.05;2.77;;;;;;;17.43;59.29;99877.92;1785267;79;21170;-81
2022/05/15 07:46:53;;;;;;;6.85;2.65;;;;;;;17.35;60.84;99872.16;1782243;80;21193;-83
2022/05/15 07:49:58;;;;;;;9.50;3.20;;;;;;;17.46;60.43;99879.40;1784050;80;21145;-82
2022/05/15 07:53:03;;;;;;;9.50;2.25;;;;;;;17.69;59.03;99871.73;1783169;80;21228;-79
2022/05/15 07:56:13;;;;;;;5.62;2.25;;;;;;;18.00;57.77;99876.23;1783296;80;21180;-79
2022/05/15 07:59:19;;;;;;;11.88;2.83;;;;;;;18.12;56.77;99877.97;1782537;80;21169;-79
2022/05/15 08:02:25;;;;;;;8.60;2.60;;;;;;;18.01;55.69;99882.91;1783637;80;21181;-79
2022/05/15 08:08:50;;;;;;;6.08;2.15;;;;;;;17.97;57.96;99887.77;1745676;82;21195;-79
2022/05/15 08:11:55;;;;;;;7.40;2.50;;;;;;;17.94;57.07;99884.11;1723463;82;21198;-79
2022/05/15 08:15:01;;;;;;;5.28;2.27;;;;;;;17.91;58.37;99884.02;1745793;82;21726;-79
2022/05/15 08:24:54;;;;;;;11.43;3.90;;;;;;;17.56;57.39;99883.84;1752546;80;21162;-78
2022/05/15 08:28:00;;;;;;;6.60;2.85;;;;;;;17.78;55.16;99880.89;1744058;82;21205;-79
2022/05/15 08:31:06;;;;;;;10.90;2.67;;;;;;;17.94;57.97;99894.63;1744765;82;21260;-79
2022/05/15 08:34:12;;;;;;;7.45;2.60;;;;;;;17.88;55.68;99888.66;1743674;82;21181;-79
2022/05/15 08:37:16;;;;;;;9.73;2.92;;;;;;;17.79;55.03;99885.38;1743759;82;21201;-79
2022/05/15 08:40:22;;;;;;;10.20;3.17;;;;;;;17.83;54.71;99878.80;1743390;82;21237;-79
2022/05/15 08:43:29;;;;;;;12.07;2.95;;;;;;;17.95;55.37;99876.10;1743546;82;21213;-79
2022/05/15 08:47:00;;;;;;;7.92;2.70;;;;;;;18.10;56.57;99881.50;1739456;82;21204;-79
2022/05/15 08:50:15;;;;;;;11.40;2.55;;;;;;;18.33;56.46;99883.48;1740692;82;21145;-78
2022/05/15 08:53:34;;;;;;;6.45;2.72;;;;;;;18.47;55.70;99880.51;1740745;82;21200;-79
2022/05/15 08:56:44;;;;;;;10.10;2.10;;;;;;;18.71;54.33;99881.41;1740271;82;21842;-79
2022/05/15 09:00:00;;;;;;;9.08;2.50;;;;;;;18.97;53.26;99879.55;1740785;82;21177;-79
2022/05/15 09:03:23;;;;;;;9.30;2.37;;;;;;;19.08;53.03;99880.08;1739763;82;21734;-79
2022/05/15 09:06:48;;;;;;;6.47;2.42;;;;;;;19.04;52.02;99883.57;1740529;81;21284;-79
2022/05/15 09:10:34;;;;;;;7.87;2.35;;;;;;;19.01;52.10;99872.45;1775934;81;21157;-79
2022/05/15 09:13:57;;;;;;;7.37;2.40;;;;;;;19.06;52.25;99878.10;1775777;81;21235;-79
2022/05/15 09:17:00;;;;;;;6.83;1.92;;;;;;;18.84;50.60;99882.56;1775917;81;21185;-79
2022/05/15 09:19:54;;;;;;;9.90;2.40;;;;;;;18.73;51.57;99872.33;1776710;81;21196;-79
2022/05/15 09:23:35;;;;;;;12.45;2.40;;;;;;;18.81;51.36;99871.95;1775219;80;21256;-79
2022/05/15 09:26:53;;;;;;;6.90;2.15;;;;;;;18.95;51.28;99876.16;1777013;81;21153;-79
2022/05/15 09:30:15;;;;;;;6.28;2.50;;;;;;;19.03;50.75;99874.42;1776506;81;21180;-79
2022/05/15 09:33:45;;;;;;;7.28;2.50;;;;;;;18.94;49.93;99866.17;1776768;81;21184;-79
2022/05/15 09:36:51;;;;;;;4.83;1.82;;;;;;;18.98;51.51;99869.31;1776813;81;21188;-79
2022/05/15 09:39:58;;;;;;;4.85;2.20;;;;;;;19.05;51.90;99863.08;1776819;81;21149;-79
2022/05/15 09:46:31;;;;;;;5.30;2.20;;;;;;;19.23;49.96;99874.02;1756411;80;21256;-77
2022/05/15 09:49:42;;;;;;;6.00;2.05;;;;;;;19.17;50.55;99876.94;1741925;81;21169;-77
2022/05/15 09:52:48;;;;;;;10.23;1.87;;;;;;;19.22;49.17;99881.21;1762740;81;21212;-77
2022/05/15 09:56:08;;;;;;;4.83;1.60;;;;;;;19.19;46.04;99875.59;1762592;81;21166;-78
2022/05/15 09:59:19;;;;;;;8.03;2.45;;;;;;;18.99;47.77;99882.91;1685385;85;21199;-78
2022/05/15 10:02:27;;;;;;;4.10;1.70;;;;;;;18.80;49.13;99881.35;1685622;85;21200;-79
2022/05/15 10:05:37;;;;;;;5.40;1.87;;;;;;;18.54;48.50;99884.87;1690591;83;21156;-79
2022/05/15 10:08:43;;;;;;;4.58;1.62;;;;;;;18.32;49.52;99878.20;1738475;82;21754;-79
2022/05/15 10:11:53;;;;;;;3.95;1.30;;;;;;;18.24;50.24;99879.91;1697775;83;21173;-79
2022/05/15 10:15:01;;;;;;;6.53;1.50;;;;;;;18.33;48.78;99870.19;1712686;83;21712;-79
2022/05/15 10:18:07;;;;;;;3.02;1.35;;;;;;;18.53;48.47;99868.47;1724390;82;21172;-79
2022/05/15 10:21:13;;;;;;;7.55;1.52;;;;;;;18.68;45.51;99872.14;1737137;82;21153;-79
2022/05/15 10:24:38;;;;;;;5.85;1.62;;;;;;;18.76;47.33;99880.14;1727156;82;21158;-79
2022/05/15 10:27:43;;;;;;;5.35;2.00;;;;;;;18.68;49.06;99876.30;1723286;82;21186;-79
2022/05/15 10:31:08;;;;;;;2.85;1.40;;;;;;;18.71;48.29;99876.70;1671045;84;21177;-79
2022/05/15 10:34:23;;;;;;;3.37;1.55;;;;;;;18.80;47.98;99871.66;1709416;84;21221;-79
2022/05/15 10:38:19;;;;;;;2.85;1.20;;;;;;;18.93;49.50;99876.96;1709317;84;21221;-79
2022/05/15 10:41:32;;;;;;;4.85;1.60;;;;;;;19.07;46.24;99879.78;1738392;82;21212;-79
2022/05/15 10:44:55;;;;;;;3.45;1.30;;;;;;;19.02;46.57;99872.73;1713993;83;21193;-79
2022/05/15 10:48:12;;;;;;;3.47;1.47;;;;;;;19.01;46.18;99871.06;1705317;83;21232;-79
2022/05/15 10:51:34;;;;;;;7.47;1.50;;;;;;;19.07;46.55;99870.63;1703952;84;21193;-79
2022/05/15 10:58:40;;;;;;;3.40;1.60;;;;;;;19.04;47.19;99871.94;1732490;82;21670;-80
2022/05/15 11:01:56;;;;;;;5.37;1.77;;;;;;;18.97;47.27;99878.72;1737705;82;21140;-84
2022/05/15 11:05:12;;;;;;;5.85;1.70;;;;;;;18.97;46.95;99877.33;1711734;83;21146;-83
2022/05/15 11:08:35;;;;;;;4.97;1.60;;;;;;;19.01;47.59;99871.06;1666843;85;21208;-83
2022/05/15 11:12:09;;;;;;;4.60;1.60;;;;;;;19.03;47.36;99871.65;1707566;84;21727;-84
2022/05/15 11:15:43;;;;;;;4.20;1.45;;;;;;;19.01;48.54;99862.75;1707485;84;21178;-83
2022/05/15 11:19:30;;;;;;;2.72;1.30;;;;;;;19.02;47.53;99867.74;1706256;84;21197;-83
2022/05/15 11:22:54;;;;;;;9.55;1.65;;;;;;;19.01;46.10;99864.13;1707117;84;21209;-83
2022/05/15 11:26:07;;;;;;;5.85;1.40;;;;;;;18.98;46.58;99863.77;1707642;84;21169;-83
2022/05/15 11:29:16;;;;;;;3.23;1.20;;;;;;;18.88;48.07;99861.61;1706985;84;21157;-84
2022/05/15 11:32:47;;;;;;;9.00;1.30;;;;;;;18.84;46.91;99867.32;1707814;84;21692;-83
2022/05/15 11:36:13;;;;;;;4.85;1.40;;;;;;;18.79;47.66;99858.89;1672198;85;21999;-83
2022/05/15 11:39:27;;;;;;;4.15;1.20;;;;;;;18.78;47.46;99852.52;1703311;83;21201;-83
2022/05/15 11:42:36;;;;;;;4.67;1.55;;;;;;;18.87;45.25;99856.61;1767942;80;21738;-79
2022/05/15 11:45:44;;;;;;;3.10;1.30;;;;;;;18.96;45.68;99855.70;1778366;80;21189;-79
2022/05/15 11:48:59;;;;;;;5.67;1.40;;;;;;;19.00;43.58;99850.49;1742364;80;22371;-78
2022/05/15 11:52:19;;;;;;;6.37;1.85;;;;;;;18.95;44.15;99847.06;1739926;82;21217;-79
2022/05/15 11:55:51;;;;;;;4.97;1.12;;;;;;;18.77;43.10;99847.19;1740186;82;21133;-78
2022/05/15 11:59:13;;;;;;;2.85;1.02;;;;;;;18.50;43.10;99850.42;1740216;82;21832;-79
2022/05/15 12:02:29;;;;;;;3.70;1.40;;;;;;;18.24;46.51;99848.08;1739808;82;22232;-78
2022/05/15 12:06:02;;;;;;;4.55;1.32;;;;;;;17.97;48.08;99851.25;1768729;81;21201;-78
2022/05/15 12:09:44;;;;;;;3.47;1.30;;;;;;;17.76;48.95;99851.25;1770166;81;21198;-79
2022/05/15 12:12:57;;;;;;;4.90;1.55;;;;;;;17.65;49.41;99843.73;1770647;81;21279;-78
2022/05/15 12:16:29;;;;;;;2.85;1.30;;;;;;;17.61;49.41;99850.80;1770768;81;21169;-79
2022/05/15 12:19:49;;;;;;;2.87;1.10;;;;;;;17.54;48.66;99849.48;1703497;84;21778;-78
2022/05/15 12:22:59;;;;;;;4.47;1.10;;;;;;;17.49;45.86;99849.34;1736942;82;21178;-78
2022/05/15 12:26:25;;;;;;;7.20;1.12;;;;;;;17.50;44.51;99853.82;1737649;82;21206;-78
2022/05/15 12:29:56;;;;;;;8.13;1.27;;;;;;;17.56;44.76;99847.34;1737051;82;21182;-78
2022/05/15 12:33:10;;;;;;;5.35;1.47;;;;;;;17.65;46.66;99840.96;1736866;82;21758;-79
2022/05/15 12:36:23;;;;;;;3.45;1.00;;;;;;;17.73;47.85;99844.80;1737717;82;21204;-79
2022/05/15 12:39:38;;;;;;;4.97;1.17;;;;;;;17.79;48.13;99852.17;1707497;82;21145;-78
2022/05/15 12:42:48;;;;;;;3.22;1.17;;;;;;;17.83;47.77;99845.09;1714984;83;21227;-78
2022/05/15 12:45:53;;;;;;;3.58;1.10;;;;;;;17.85;48.29;99844.85;1736375;81;21165;-78
2022/05/15 12:48:58;;;;;;;4.45;1.32;;;;;;;17.82;48.92;99843.39;1726480;82;21776;-79
2022/05/15 12:52:23;;;;;;;7.83;1.37;;;;;;;17.79;49.61;99840.27;1688812;85;21256;-79
2022/05/15 12:55:35;;;;;;;4.40;1.20;;;;;;;17.77;50.58;99841.02;1696426;83;22098;-78
2022/05/15 12:58:41;;;;;;;15.28;1.50;;;;;;;17.80;52.20;99848.86;1717886;83;21232;-78
2022/05/15 13:01:48;;;;;;;5.47;1.87;;;;;;;17.83;51.71;99845.61;1718988;83;21165;-78
2022/05/15 13:04:57;;;;;;;4.40;1.75;;;;;;;17.79;51.57;99840.27;1718946;83;21212;-79
2022/05/15 13:08:05;;;;;;;5.53;2.10;;;;;;;17.73;52.65;99843.41;1719175;83;21237;-78
2022/05/15 13:11:11;;;;;;;5.08;1.55;;;;;;;17.70;54.03;99845.80;1719100;83;21170;-79
2022/05/15 13:14:43;;;;;;;3.45;1.10;;;;;;;17.68;54.04;99846.55;1719055;83;21734;-78
2022/05/15 13:17:50;;;;;;;5.08;1.60;;;;;;;17.62;55.06;99849.17;1714359;83;21203;-78
2022/05/15 13:21:02;;;;;;;5.17;1.65;;;;;;;17.51;53.75;99840.30;1718004;83;21774;-78
2022/05/15 13:24:08;;;;;;;6.90;1.45;;;;;;;17.39;55.03;99838.00;1714097;83;21177;-78
2022/05/15 13:27:14;;;;;;;8.40;1.72;;;;;;;17.34;55.81;99823.48;1716132;83;21547;-79
2022/05/15 13:30:30;;;;;;;3.35;1.20;;;;;;;17.40;56.06;99814.80;1717720;83;21194;-78
2022/05/15 13:33:37;;;;;;;3.92;1.40;;;;;;;17.54;56.32;99814.92;1717760;83;21759;-78
2022/05/15 13:36:42;;;;;;;3.12;1.27;;;;;;;17.76;55.15;99812.52;1717928;83;21265;-78
2022/05/15 13:43:28;;;;;;;4.08;1.10;;;;;;;17.90;50.74;99810.41;1658268;85;21854;-78
2022/05/15 13:46:31;;;;;;;5.53;1.20;;;;;;;17.83;52.45;99806.37;1687814;83;21204;-78
2022/05/15 13:49:54;;;;;;;5.77;1.30;;;;;;;17.77;50.14;99806.45;1695744;82;21213;-78
2022/05/15 13:53:01;;;;;;;3.08;1.20;;;;;;;17.71;50.41;99798.53;1718315;82;21173;-78
2022/05/15 13:56:14;;;;;;;3.50;1.17;;;;;;;17.66;50.53;99794.25;1731162;82;21171;-78
2022/05/15 13:59:49;;;;;;;5.35;1.25;;;;;;;17.66;51.43;99790.64;1727322;83;21804;-78
2022/05/15 14:03:04;;;;;;;3.70;0.93;;;;;;;17.66;51.43;99788.72;1724014;82;21192;-78
2022/05/15 14:06:36;;;;;;;5.75;1.50;;;;;;;17.67;51.15;99793.70;1732789;82;21176;-78
2022/05/15 14:09:52;;;;;;;;;;;;;;;17.67;51.42;99791.77;1712088;83;21355;-78
2022/05/15 14:13:08;;;;;;;6.95;1.55;;;;;;;17.65;51.56;99788.96;1722903;83;20189;-78
2022/05/15 14:16:27;;;;;;;8.10;1.67;;;;;;;17.60;51.53;99789.13;1729195;82;21141;-78
2022/05/15 14:19:33;;;;;;;8.57;2.20;;;;;;;17.58;51.79;99788.49;1707002;83;21140;-78
2022/05/15 14:22:38;;;;;;;7.05;1.65;;;;;;;17.54;51.73;99784.50;1709077;84;21724;-78
2022/05/15 14:25:44;;;;;;;4.70;1.42;;;;;;;17.54;53.51;99789.20;1703744;82;21182;-78
2022/05/15 14:28:51;;;;;;;6.22;1.42;;;;;;;17.55;53.80;99782.07;1726670;83;21177;-78
2022/05/15 14:31:57;;;;;;;7.75;1.77;;;;;;;17.57;53.70;99781.83;1722250;83;21174;-78
2022/05/15 14:35:04;;;;;;;4.47;1.45;;;;;;;17.58;54.17;99782.96;1718286;83;21154;-78
2022/05/15 14:38:10;;;;;;;6.80;1.60;;;;;;;17.61;53.93;99781.66;1735828;82;21612;-78
2022/05/15 14:41:17;;;;;;;6.47;1.70;;;;;;;17.59;52.52;99779.66;1712918;83;21154;-79
2022/05/15 14:44:22;;;;;;;5.75;1.77;;;;;;;17.55;53.50;99777.92;1741363;82;21737;-78
2022/05/15 14:47:29;;;;;;;3.25;1.10;;;;;;;17.54;53.21;99781.73;1726271;83;21240;-78
2022/05/15 14:50:35;;;;;;;8.70;1.67;;;;;;;17.52;53.23;99775.61;1725445;83;21233;-78
2022/05/15 14:53:40;;;;;;;4.60;1.60;;;;;;;17.50;53.21;99779.17;1726110;83;21196;-78
2022/05/15 14:56:47;;;;;;;10.13;2.10;;;;;;;17.51;53.54;99777.24;1727538;83;21205;-78
2022/05/15 14:59:52;;;;;;;9.70;2.15;;;;;;;17.52;54.00;99776.16;1705073;84;21181;-78
2022/05/15 15:02:59;;;;;;;13.58;2.10;;;;;;;17.54;54.04;99775.37;1729738;83;21239;-78
2022/05/15 15:06:05;;;;;;;8.33;1.90;;;;;;;17.55;53.63;99779.30;1727047;83;21180;-78
2022/05/15 15:09:12;;;;;;;5.47;1.87;;;;;;;17.55;53.53;99779.30;1727102;83;21781;-78
2022/05/15 15:12:17;;;;;;;9.50;1.82;;;;;;;17.53;54.21;99781.98;1713204;83;21239;-78
2022/05/15 15:15:21;;;;;;;4.62;1.90;;;;;;;17.48;54.45;99773.02;1705032;84;21728;-78